Terminal Aerodrome Forecast
Issued by NWS Denver/Boulder, CO

Home | Current Version | Previous Version | Text Only | Print | Product List | Glossary On
Versions: 1 2 3 4 5 6 7 8 9 10 11 12 13 14 15 16 17 18 19 20 21 22 23 24 25 26 27 28 29 30 31 32 33 34 35 36 37 38 39 40 41 42 43 44 45 46 47 48 49 50
000
FTUS45 KBOU 280920 AAB
TAFDEN
TAF AMD
KDEN 280920Z 2809/2912 26008KT P6SM SCT050 OVC080
     FM281000 31009KT P6SM VCFG SCT040 OVC060
     FM281100 34008KT 5SM BR SCT012 BKN025 OVC040
      TEMPO 2811/2814 2SM BR OVC008
     FM281600 36008KT P6SM VCSH SCT030 OVC050
     FM282000 02010KT 6SM -SHRA SCT020 OVC030
      TEMPO 2821/2901 03012KT 3SM -SHRA BR OVC020
     FM290100 06013KT 1SM RA BR BKN009 OVC015
     FM290600 02014G22KT 3/4SM RA BR OVC007 PROB30 2909/2912 1/4SM
      RASN FZFG VV004=

USA.gov is the U.S. government's official web portal to all federal, state and local government web resources and services.